createdAt,value
2023-02-06T00:02:27.999Z,96794.53
2023-02-06T00:05:14.871Z,96776.84
2023-02-06T00:07:47.895Z,96779.44
2023-02-06T00:10:34.797Z,96783.31
2023-02-06T00:13:07.900Z,96779.84
2023-02-06T00:15:54.870Z,96791.56
2023-02-06T00:18:27.920Z,96790.06
2023-02-06T00:21:14.802Z,96793.28
2023-02-06T00:23:47.967Z,96798.41
2023-02-06T00:26:35.784Z,96792.31
2023-02-06T00:29:09.050Z,96795.44
2023-02-06T00:31:55.895Z,96795.25
2023-02-06T00:34:35.799Z,96801.09
2023-02-06T00:37:23.875Z,96798.72
2023-02-06T00:39:56.923Z,96793.16
2023-02-06T00:42:43.814Z,96801.41
2023-02-06T00:45:16.929Z,96790.44
2023-02-06T00:48:04.028Z,96785.06
2023-02-06T00:50:36.970Z,96799.25
2023-02-06T00:53:23.858Z,96788.41
2023-02-06T00:55:56.974Z,96788.81
2023-02-06T00:58:43.834Z,96779.97
2023-02-06T01:01:17.061Z,96786.66
2023-02-06T01:04:03.883Z,96779.09
2023-02-06T01:06:36.926Z,96789.06
2023-02-06T01:09:23.877Z,96792.41
2023-02-06T01:11:57.020Z,96791.78
2023-02-06T01:14:43.813Z,96786.56
2023-02-06T01:17:16.927Z,96786.31
2023-02-06T01:20:03.852Z,96787.09
2023-02-06T01:22:40.973Z,96786.44
2023-02-06T01:25:27.810Z,96792.41
2023-02-06T01:28:07.837Z,96785.94
2023-02-06T01:30:54.864Z,96789.50
2023-02-06T01:33:28.042Z,96789.16
2023-02-06T01:36:14.929Z,96784.72
2023-02-06T01:38:55.855Z,96788.59
2023-02-06T01:41:49.824Z,96784.47
2023-02-06T01:44:37.829Z,96782.00
2023-02-06T01:47:11.124Z,96775.28
2023-02-06T01:49:57.854Z,96779.94
2023-02-06T01:52:34.038Z,96781.78
2023-02-06T01:55:20.805Z,96787.41
2023-02-06T01:57:53.968Z,96779.16
2023-02-06T02:00:40.781Z,96777.66
2023-02-06T02:03:14.997Z,96773.19
2023-02-06T02:06:06.823Z,96772.34
2023-02-06T02:08:46.935Z,96771.81
2023-02-06T02:11:44.915Z,96772.03
2023-02-06T02:14:28.820Z,96768.03
2023-02-06T02:17:52.868Z,96762.06
2023-02-06T02:20:44.881Z,96757.84
2023-02-06T02:23:47.848Z,96761.94
2023-02-06T02:26:52.895Z,96762.91
2023-02-06T02:30:07.536Z,96759.56
2023-02-06T02:33:11.829Z,96752.75
2023-02-06T02:36:00.943Z,96750.03
2023-02-06T02:38:57.914Z,96745.06
2023-02-06T02:42:08.919Z,96755.03
2023-02-06T02:45:27.898Z,96750.91
2023-02-06T02:48:36.842Z,96754.13
2023-02-06T02:51:30.882Z,96760.88
2023-02-06T02:54:17.830Z,96752.63
2023-02-06T02:56:51.939Z,96748.19
2023-02-06T02:59:52.831Z,96750.69
2023-02-06T03:02:38.863Z,96747.44
2023-02-06T03:05:30.898Z,96743.44
2023-02-06T03:08:51.846Z,96746.66
2023-02-06T03:11:45.851Z,96735.75
2023-02-06T03:14:47.850Z,96735.81
2023-02-06T03:17:31.248Z,96733.25
2023-02-06T03:20:18.838Z,96734.00
2023-02-06T03:22:55.006Z,96732.16
2023-02-06T03:25:47.839Z,96723.56
2023-02-06T03:28:34.865Z,96731.81
2023-02-06T03:31:27.872Z,96733.44
2023-02-06T03:34:27.850Z,96726.72
2023-02-06T03:37:22.991Z,96723.47
2023-02-06T03:40:12.874Z,96714.16
2023-02-06T03:42:51.146Z,96725.63
2023-02-06T03:45:42.879Z,96727.88
2023-02-06T03:48:22.949Z,96717.06
2023-02-06T03:51:15.869Z,96725.97
2023-02-06T03:53:51.954Z,96719.34
2023-02-06T03:56:51.852Z,96733.66
2023-02-06T03:59:26.019Z,96729.31
2023-02-06T04:02:13.916Z,96733.31
2023-02-06T04:04:55.845Z,96730.94
2023-02-06T04:07:49.867Z,96725.97
2023-02-06T04:10:36.875Z,96728.56
2023-02-06T04:13:16.877Z,96731.81
2023-02-06T04:16:03.863Z,96733.75
2023-02-06T04:18:37.047Z,96727.13
2023-02-06T04:21:23.878Z,96738.09
2023-02-06T04:23:56.971Z,96738.19
2023-02-06T04:26:43.873Z,96734.94
2023-02-06T04:29:23.912Z,96743.50
2023-02-06T04:32:17.904Z,96737.91
2023-02-06T04:35:11.950Z,96743.75
2023-02-06T04:38:05.868Z,96751.22
2023-02-06T04:40:59.886Z,96752.06
2023-02-06T04:43:46.858Z,96752.59
2023-02-06T04:46:20.016Z,96759.53
2023-02-06T04:49:06.895Z,96751.53
2023-02-06T04:51:46.889Z,96762.25
2023-02-06T04:54:40.886Z,96758.03
2023-02-06T04:57:27.910Z,96757.06
2023-02-06T05:00:00.982Z,96755.56
2023-02-06T05:02:47.930Z,96754.91
2023-02-06T05:05:27.892Z,96758.25
2023-02-06T05:08:21.884Z,96761.59
2023-02-06T05:11:08.866Z,96753.38
2023-02-06T05:13:49.999Z,96761.00
2023-02-06T05:16:43.856Z,96749.16
2023-02-06T05:19:30.883Z,96761.72
2023-02-06T05:22:04.047Z,96769.97
2023-02-06T05:24:50.900Z,96770.63
2023-02-06T05:27:24.754Z,96770.50
2023-02-06T05:30:11.908Z,96770.50
2023-02-06T05:32:44.980Z,96776.56
2023-02-06T05:35:31.939Z,96772.56
2023-02-06T05:38:04.997Z,96776.78
2023-02-06T05:40:51.893Z,96784.34
2023-02-06T05:43:25.010Z,96778.63
2023-02-06T05:46:11.956Z,96778.53
2023-02-06T05:48:45.999Z,96775.03
2023-02-06T05:51:33.929Z,96770.31
2023-02-06T05:54:07.000Z,96776.28
2023-02-06T05:56:53.928Z,96779.63
2023-02-06T05:59:33.890Z,96782.25
2023-02-06T06:02:20.894Z,96778.84
2023-02-06T06:05:00.984Z,96783.19
2023-02-06T06:07:54.906Z,96781.69
2023-02-06T06:10:41.915Z,96781.91
2023-02-06T06:13:21.900Z,96787.13
2023-02-06T06:16:15.964Z,96791.00
2023-02-06T06:19:02.916Z,96793.41
2023-02-06T06:21:42.890Z,96795.03
2023-02-06T06:24:29.917Z,96790.03
2023-02-06T06:27:03.795Z,96785.41
2023-02-06T06:29:43.911Z,96789.09
2023-02-06T06:32:30.920Z,96785.09
2023-02-06T06:35:17.896Z,96789.28
2023-02-06T06:37:51.023Z,96791.91
2023-02-06T06:40:37.905Z,96795.59
2023-02-06T06:43:17.915Z,96789.09
2023-02-06T06:46:06.958Z,96792.69
2023-02-06T06:48:46.920Z,96796.78
2023-02-06T06:51:40.906Z,96797.69
2023-02-06T06:54:28.900Z,96798.41
2023-02-06T06:57:02.032Z,96801.34
2023-02-06T06:59:48.909Z,96801.69
2023-02-06T07:02:23.033Z,96801.88
2023-02-06T07:05:10.935Z,96799.06
2023-02-06T07:07:44.018Z,96806.03
2023-02-06T07:10:30.928Z,96803.00
2023-02-06T07:13:04.063Z,96805.53
2023-02-06T07:15:50.937Z,96802.44
2023-02-06T07:18:24.022Z,96797.53
2023-02-06T07:21:10.916Z,96801.78
2023-02-06T07:23:44.074Z,96801.25
2023-02-06T07:26:30.918Z,96799.06
2023-02-06T07:29:10.941Z,96798.63
2023-02-06T07:32:04.929Z,96795.72
2023-02-06T07:34:52.014Z,96796.25
2023-02-06T07:37:25.030Z,96792.44
2023-02-06T07:40:11.914Z,96794.28
2023-02-06T07:42:46.020Z,96796.09
2023-02-06T07:45:34.133Z,96797.09
2023-02-06T07:48:16.938Z,96783.31
2023-02-06T07:51:16.971Z,96795.16
2023-02-06T07:54:03.948Z,96792.97
2023-02-06T07:56:37.091Z,96797.63
2023-02-06T07:59:23.977Z,96794.38
2023-02-06T08:01:57.272Z,96789.28
2023-02-06T08:04:43.985Z,96783.53
2023-02-06T08:07:23.955Z,96786.31
2023-02-06T08:10:17.975Z,96781.63
2023-02-06T08:13:11.929Z,96781.75
2023-02-06T08:15:58.946Z,96786.03
2023-02-06T08:18:32.072Z,96782.44
2023-02-06T08:21:29.973Z,96783.72
2023-02-06T08:24:06.091Z,96776.28
2023-02-06T08:26:52.948Z,96789.34
2023-02-06T08:29:26.051Z,96795.50
2023-02-06T08:32:12.931Z,96790.09
2023-02-06T08:34:52.950Z,96790.06
2023-02-06T08:37:47.956Z,96789.69
2023-02-06T08:40:34.966Z,96796.78
2023-02-06T08:43:14.947Z,96791.50
2023-02-06T08:46:09.028Z,96791.72
2023-02-06T08:49:08.957Z,96783.78
2023-02-06T08:52:02.944Z,96784.84
2023-02-06T08:54:56.989Z,96771.00
2023-02-06T08:57:43.942Z,96779.56
2023-02-06T09:00:24.961Z,96775.63
2023-02-06T09:03:18.953Z,96774.41
2023-02-06T09:06:10.645Z,96772.78
2023-02-06T09:08:45.089Z,96776.31
2023-02-06T09:11:33.959Z,96782.56
2023-02-06T09:14:10.134Z,96778.38
2023-02-06T09:16:56.946Z,96779.25
2023-02-06T09:19:30.067Z,96780.03
2023-02-06T09:22:16.991Z,96775.53
2023-02-06T09:24:50.067Z,96772.53
2023-02-06T09:27:36.949Z,96777.69
2023-02-06T09:30:11.052Z,96786.94
2023-02-06T09:32:57.991Z,96788.34
2023-02-06T09:35:31.052Z,96786.88
2023-02-06T09:38:17.974Z,96781.69
2023-02-06T09:40:51.043Z,96786.97
2023-02-06T09:43:39.939Z,96783.13
2023-02-06T09:46:29.976Z,96786.13
2023-02-06T09:49:33.991Z,96781.97
2023-02-06T09:52:57.975Z,96783.78
2023-02-06T09:55:34.411Z,96778.41
2023-02-06T09:58:32.980Z,96784.25
2023-02-06T10:01:25.024Z,96782.00
2023-02-06T10:04:29.020Z,96773.47
2023-02-06T10:07:30.980Z,96778.28
2023-02-06T10:10:33.940Z,96776.31
2023-02-06T10:13:50.973Z,96773.94
2023-02-06T10:16:50.954Z,96777.34
2023-02-06T10:19:58.967Z,96779.13
2023-02-06T10:22:49.952Z,96776.81
2023-02-06T10:25:40.966Z,96777.78
2023-02-06T10:28:41.970Z,96780.28
2023-02-06T10:31:32.096Z,96774.84
2023-02-06T10:34:36.996Z,96775.53
2023-02-06T10:38:24.985Z,96772.09
2023-02-06T10:41:36.978Z,96769.31
2023-02-06T10:44:37.988Z,96771.63
2023-02-06T10:47:32.975Z,96769.72
2023-02-06T10:50:40.992Z,96771.16
2023-02-06T10:53:32.004Z,96770.22
2023-02-06T10:56:31.009Z,96771.38
2023-02-06T10:59:35.002Z,96767.63
2023-02-06T11:02:21.042Z,96763.88
2023-02-06T11:05:13.994Z,96767.44
2023-02-06T11:07:59.983Z,96778.69
2023-02-06T11:10:54.004Z,96787.81
2023-02-06T11:13:44.006Z,96785.59
2023-02-06T11:16:20.192Z,96793.09
2023-02-06T11:19:16.996Z,96786.50
2023-02-06T11:22:03.076Z,96786.94
2023-02-06T11:25:07.008Z,96779.09
2023-02-06T11:27:44.358Z,96784.03
2023-02-06T11:30:42.004Z,96784.03
2023-02-06T11:33:28.061Z,96780.38
2023-02-06T11:36:30.015Z,96777.34
2023-02-06T11:39:16.013Z,96780.72
2023-02-06T11:42:13.017Z,96777.00
2023-02-06T11:45:07.005Z,96776.41
2023-02-06T11:48:01.011Z,96778.34
2023-02-06T11:50:55.025Z,96774.50
2023-02-06T11:53:49.999Z,96772.56
2023-02-06T11:56:38.002Z,96763.81
2023-02-06T11:59:29.713Z,96763.44
2023-02-06T12:02:31.085Z,96765.69
2023-02-06T12:05:32.006Z,96772.59
2023-02-06T12:08:23.011Z,96763.19
2023-02-06T12:11:13.004Z,96767.13
2023-02-06T12:14:05.008Z,96758.09
2023-02-06T12:16:52.121Z,96762.41
2023-02-06T12:19:58.008Z,96757.59
2023-02-06T12:22:51.022Z,96767.53
2023-02-06T12:25:43.090Z,96762.59
2023-02-06T12:28:38.033Z,96757.84
2023-02-06T12:31:27.078Z,96761.25
2023-02-06T12:34:35.016Z,96751.53
2023-02-06T12:37:38.025Z,96759.72
2023-02-06T12:40:45.027Z,96764.03
2023-02-06T12:43:20.126Z,96767.19
2023-02-06T12:46:32.091Z,96752.00
2023-02-06T12:49:42.217Z,96759.22
2023-02-06T12:52:34.017Z,96764.72
2023-02-06T12:55:28.036Z,96759.53
2023-02-06T12:58:40.022Z,96770.50
2023-02-06T13:01:34.579Z,96762.41
2023-02-06T13:04:19.160Z,96758.78
2023-02-06T13:07:20.035Z,96755.09
2023-02-06T13:10:01.155Z,96763.47
2023-02-06T13:12:48.018Z,96761.63
2023-02-06T13:15:30.138Z,96755.09
2023-02-06T13:18:48.043Z,96763.88
2023-02-06T13:21:36.772Z,96772.59
2023-02-06T13:24:26.012Z,96785.31
2023-02-06T13:27:06.079Z,96780.38
2023-02-06T13:30:02.025Z,96787.72
2023-02-06T13:32:58.051Z,96792.81
2023-02-06T13:36:02.029Z,96793.50
2023-02-06T13:38:52.025Z,96788.50
2023-02-06T13:41:44.108Z,96790.28
2023-02-06T13:44:46.047Z,96798.75
2023-02-06T13:47:55.155Z,96796.94
2023-02-06T13:51:01.043Z,96792.88
2023-02-06T13:53:54.047Z,96794.91
2023-02-06T13:57:01.062Z,96789.63
2023-02-06T14:00:00.038Z,96804.16
2023-02-06T14:02:55.077Z,96794.47
2023-02-06T14:05:47.400Z,96802.38
2023-02-06T14:08:50.057Z,96798.16
2023-02-06T14:11:41.154Z,96789.69
2023-02-06T14:14:43.059Z,96796.16
2023-02-06T14:17:40.189Z,96807.50
2023-02-06T14:20:41.049Z,96804.47
2023-02-06T14:23:55.047Z,96802.50
2023-02-06T14:27:04.064Z,96801.72
2023-02-06T14:29:51.042Z,96794.91
2023-02-06T14:32:24.172Z,96792.50
2023-02-06T14:35:27.048Z,96804.34
2023-02-06T14:38:28.060Z,96802.50
2023-02-06T14:41:16.050Z,96804.47
2023-02-06T14:43:58.037Z,96803.72
2023-02-06T14:46:38.088Z,96806.00
2023-02-06T14:49:32.051Z,96813.00
2023-02-06T14:52:35.047Z,96807.38
2023-02-06T14:55:45.146Z,96809.22
2023-02-06T14:58:41.074Z,96806.53
2023-02-06T15:01:33.170Z,96810.66
2023-02-06T15:04:28.171Z,96806.59
2023-02-06T15:07:29.063Z,96808.16
2023-02-06T15:10:09.286Z,96813.91
2023-02-06T15:13:00.077Z,96817.47
2023-02-06T15:15:39.348Z,96819.31
2023-02-06T15:18:26.072Z,96824.41
2023-02-06T15:21:06.180Z,96820.97
2023-02-06T15:24:02.075Z,96826.91
2023-02-06T15:27:02.078Z,96824.50
2023-02-06T15:29:42.085Z,96824.19
2023-02-06T15:32:52.083Z,96819.97
2023-02-06T15:35:50.089Z,96815.84
2023-02-06T15:38:40.079Z,96823.56
2023-02-06T15:41:14.228Z,96821.19
2023-02-06T15:44:07.075Z,96823.56
2023-02-06T15:46:49.237Z,96824.34
2023-02-06T15:49:53.074Z,96830.88
2023-02-06T15:52:54.074Z,96835.94
2023-02-06T15:55:49.108Z,96836.53
2023-02-06T15:58:37.085Z,96841.28
2023-02-06T16:01:14.228Z,96851.09
2023-02-06T16:04:06.080Z,96851.09
2023-02-06T16:06:39.201Z,96851.09
2023-02-06T16:09:28.096Z,96856.94
2023-02-06T16:12:03.187Z,96862.59
2023-02-06T16:15:03.075Z,96862.16
2023-02-06T16:17:51.099Z,96867.28
2023-02-06T16:20:53.139Z,96860.53
2023-02-06T16:24:10.093Z,96860.44
2023-02-06T16:26:55.192Z,96860.97
2023-02-06T16:29:42.117Z,96861.44
2023-02-06T16:32:29.089Z,96857.72
2023-02-06T16:35:26.120Z,96865.69
2023-02-06T16:38:16.095Z,96864.50
2023-02-06T16:40:49.193Z,96863.41
2023-02-06T16:43:38.099Z,96868.59
2023-02-06T16:46:11.234Z,96859.28
2023-02-06T16:49:05.205Z,96865.66
2023-02-06T16:52:00.133Z,96870.22
2023-02-06T16:54:47.108Z,96863.16
2023-02-06T16:57:42.101Z,96865.44
2023-02-06T17:00:42.089Z,96869.47
2023-02-06T17:03:29.089Z,96864.00
2023-02-06T17:06:09.105Z,96871.28
2023-02-06T17:09:04.108Z,96876.41
2023-02-06T17:11:51.133Z,96865.44
2023-02-06T17:14:24.195Z,96865.19
2023-02-06T17:17:11.090Z,96870.31
2023-02-06T17:19:44.201Z,96869.31
2023-02-06T17:22:31.112Z,96869.84
2023-02-06T17:25:11.102Z,96866.09
2023-02-06T17:28:05.133Z,96868.16
2023-02-06T17:30:53.161Z,96872.25
2023-02-06T17:33:26.267Z,96864.56
2023-02-06T17:36:14.111Z,96875.81
2023-02-06T17:38:47.285Z,96873.50
2023-02-06T17:41:34.119Z,96883.16
2023-02-06T17:44:14.105Z,96880.84
2023-02-06T17:47:01.333Z,96884.50
2023-02-06T17:49:41.108Z,96886.53
2023-02-06T17:52:35.095Z,96879.47
2023-02-06T17:55:23.108Z,96887.38
2023-02-06T17:57:56.265Z,96875.72
2023-02-06T18:00:43.129Z,96878.38
2023-02-06T18:03:25.109Z,96880.06
2023-02-06T18:06:19.176Z,96885.97
2023-02-06T18:09:06.121Z,96883.28
2023-02-06T18:11:46.112Z,96886.03
2023-02-06T18:14:40.129Z,96884.56
2023-02-06T18:17:34.116Z,96878.88
2023-02-06T18:20:29.168Z,96898.69
2023-02-06T18:23:23.143Z,96895.47
2023-02-06T18:26:12.149Z,96891.50
2023-02-06T18:28:46.287Z,96893.38
2023-02-06T18:31:36.212Z,96889.03
2023-02-06T18:34:20.429Z,96903.34
2023-02-06T18:37:14.128Z,96887.34
2023-02-06T18:40:08.124Z,96900.13
2023-02-06T18:42:58.140Z,96896.41
2023-02-06T18:45:34.611Z,96901.34
2023-02-06T18:48:28.121Z,96897.75
2023-02-06T18:51:22.112Z,96904.13
2023-02-06T18:54:16.127Z,96905.94
2023-02-06T18:57:10.133Z,96907.56
2023-02-06T19:00:04.122Z,96908.28
2023-02-06T19:02:58.106Z,96902.53
2023-02-06T19:05:45.134Z,96904.97
2023-02-06T19:08:19.651Z,96907.06
2023-02-06T19:11:06.142Z,96901.34
2023-02-06T19:13:40.629Z,96906.91
2023-02-06T19:16:28.240Z,96904.03
2023-02-06T19:19:08.135Z,96910.72
2023-02-06T19:22:03.153Z,96910.09
2023-02-06T19:24:51.143Z,96902.72
2023-02-06T19:27:26.151Z,96902.19
2023-02-06T19:30:17.139Z,96905.91
2023-02-06T19:32:51.521Z,96904.63
2023-02-06T19:35:38.126Z,96904.09
2023-02-06T19:38:18.143Z,96908.66
2023-02-06T19:41:22.164Z,96907.53
2023-02-06T19:44:20.157Z,96909.88
2023-02-06T19:47:15.173Z,96912.50
2023-02-06T19:50:09.150Z,96920.25
2023-02-06T19:52:56.144Z,96926.88
2023-02-06T19:55:36.131Z,96922.28
2023-02-06T19:58:30.622Z,96929.03
2023-02-06T20:01:19.229Z,96929.06
2023-02-06T20:03:59.154Z,96931.91
2023-02-06T20:06:46.150Z,96931.50
2023-02-06T20:09:28.194Z,96939.22
2023-02-06T20:12:17.148Z,96942.16
2023-02-06T20:14:50.255Z,96939.56
2023-02-06T20:17:37.165Z,96938.56
2023-02-06T20:20:18.162Z,96940.38
2023-02-06T20:23:05.164Z,96941.84
2023-02-06T20:25:45.158Z,96952.63
2023-02-06T20:28:39.152Z,96954.94
2023-02-06T20:31:27.777Z,96962.81
2023-02-06T20:34:09.146Z,96957.63
2023-02-06T20:37:04.158Z,96959.81
2023-02-06T20:39:58.138Z,96951.97
2023-02-06T20:43:00.158Z,96961.91
2023-02-06T20:45:54.202Z,96954.78
2023-02-06T20:48:49.171Z,96962.22
2023-02-06T20:51:37.165Z,96964.00
2023-02-06T20:54:11.607Z,96960.97
2023-02-06T20:56:58.165Z,96964.19
2023-02-06T20:59:31.247Z,96963.75
2023-02-06T21:02:18.195Z,96966.09
2023-02-06T21:04:52.357Z,96969.31
2023-02-06T21:07:40.144Z,96964.03
2023-02-06T21:10:20.186Z,96969.03
2023-02-06T21:13:14.153Z,96970.94
2023-02-06T21:16:11.946Z,96978.19
2023-02-06T21:19:01.183Z,96978.78
2023-02-06T21:21:34.309Z,96985.34
2023-02-06T21:24:22.173Z,96984.91
2023-02-06T21:26:55.260Z,96987.66
2023-02-06T21:29:42.180Z,96978.94
2023-02-06T21:32:15.321Z,96985.66
2023-02-06T21:35:02.456Z,96987.69
2023-02-06T21:37:42.174Z,96984.03
2023-02-06T21:40:29.166Z,96984.47
2023-02-06T21:43:09.172Z,96989.72
2023-02-06T21:46:03.398Z,96993.94
2023-02-06T21:48:57.215Z,97006.72
2023-02-06T21:51:51.161Z,96996.41
2023-02-06T21:54:38.194Z,97002.94
2023-02-06T21:57:11.291Z,97005.25
2023-02-06T21:59:58.172Z,97009.94
2023-02-06T22:02:38.208Z,97010.50
2023-02-06T22:05:25.175Z,97005.84
2023-02-06T22:07:58.992Z,97010.78
2023-02-06T22:10:46.181Z,97020.09
2023-02-06T22:13:26.187Z,97023.44
2023-02-06T22:16:21.213Z,97023.56
2023-02-06T22:19:08.170Z,97040.44
2023-02-06T22:22:00.962Z,97040.00
2023-02-06T22:24:47.193Z,97034.19
2023-02-06T22:27:20.365Z,97043.78
2023-02-06T22:30:07.218Z,97038.13
2023-02-06T22:32:47.295Z,97033.31
2023-02-06T22:35:34.191Z,97031.44
2023-02-06T22:38:14.213Z,97034.66
2023-02-06T22:41:17.457Z,97032.47
2023-02-06T22:44:04.191Z,97041.47
2023-02-06T22:46:41.424Z,97047.13
2023-02-06T22:49:35.189Z,97052.97
2023-02-06T22:52:48.191Z,97052.41
2023-02-06T22:55:55.179Z,97047.72
2023-02-06T22:58:28.287Z,97056.03
2023-02-06T23:01:15.224Z,97057.06
2023-02-06T23:03:48.282Z,97053.41
2023-02-06T23:06:37.198Z,97057.91
2023-02-06T23:09:19.197Z,97064.59
2023-02-06T23:12:13.200Z,97057.34
2023-02-06T23:15:00.210Z,97055.28
2023-02-06T23:17:33.453Z,97062.28
2023-02-06T23:20:20.208Z,97076.97
2023-02-06T23:22:53.303Z,97075.94
2023-02-06T23:25:40.226Z,97081.47
2023-02-06T23:28:13.406Z,97084.38
2023-02-06T23:31:01.236Z,97082.78
2023-02-06T23:33:34.310Z,97075.34
2023-02-06T23:36:31.213Z,97072.13
2023-02-06T23:39:15.232Z,97075.63
2023-02-06T23:42:09.200Z,97065.28
2023-02-06T23:44:56.207Z,97067.03
2023-02-06T23:47:29.311Z,97063.69
2023-02-06T23:50:23.183Z,97064.69
2023-02-06T23:53:17.222Z,97060.75
2023-02-06T23:56:04.212Z,97066.13
2023-02-06T23:58:44.229Z,97059.00
